Time;durP1;ratioP1;P1;durP2;ratioP2;P2;SDS_P1;SDS_P2;PMS_P1;PMS_P2;Temp;Humidity;BMP_temperature;BMP_pressure;BME280_temperature;BME280_humidity;BME280_pressure;Samples;Min_cycle;Max_cycle;Signal;HPM_P1;HPM_P2
2022/10/11 00:02:41;;;;;;;0.70;0.63;;;10.70;99.90;;;;;;5015047;28;20557;-73
2022/10/11 00:05:31;;;;;;;0.40;0.40;;;10.60;99.90;;;;;;5015621;28;20453;-73
2022/10/11 00:08:19;;;;;;;0.40;0.40;;;10.50;99.90;;;;;;5015505;28;20425;-72
2022/10/11 00:11:08;;;;;;;0.47;0.47;;;10.40;99.90;;;;;;5018610;28;20880;-73
2022/10/11 00:13:56;;;;;;;0.40;0.40;;;10.40;99.90;;;;;;5016019;28;20536;-71
2022/10/11 00:16:44;;;;;;;0.40;0.40;;;10.30;99.90;;;;;;5031790;28;20462;-73
2022/10/11 00:19:32;;;;;;;0.50;0.50;;;10.20;99.90;;;;;;5033310;28;20467;-73
2022/10/11 00:22:21;;;;;;;0.40;0.40;;;10.10;99.90;;;;;;5027069;28;20430;-73
2022/10/11 00:25:11;;;;;;;1.70;1.63;;;10.10;99.90;;;;;;5018323;28;20552;-72
2022/10/11 00:27:59;;;;;;;0.60;0.60;;;10.00;99.90;;;;;;5014919;28;20568;-72
2022/10/11 00:30:47;;;;;;;0.40;0.40;;;9.90;99.90;;;;;;5013597;28;20422;-72
2022/10/11 00:33:36;;;;;;;0.40;0.40;;;9.80;99.90;;;;;;5013120;28;20495;-72
2022/10/11 00:36:24;;;;;;;0.40;0.40;;;9.80;99.90;;;;;;5012462;28;20422;-72
2022/10/11 00:39:14;;;;;;;0.40;0.40;;;9.70;99.90;;;;;;5013177;28;20465;-72
2022/10/11 00:42:02;;;;;;;1.33;0.50;;;9.70;99.90;;;;;;5013002;28;21068;-72
2022/10/11 00:44:51;;;;;;;0.40;0.40;;;9.60;99.90;;;;;;5012680;28;20488;-72
2022/10/11 00:47:40;;;;;;;1.47;1.37;;;9.60;99.90;;;;;;5013282;28;20924;-72
2022/10/11 00:50:32;;;;;;;0.40;0.40;;;9.50;99.90;;;;;;5013034;28;20513;-72
2022/10/11 00:53:22;;;;;;;0.40;0.40;;;9.40;99.90;;;;;;5013510;28;20426;-73
2022/10/11 00:56:16;;;;;;;0.40;0.40;;;9.40;99.90;;;;;;5012761;28;20507;-72
2022/10/11 00:59:10;;;;;;;0.40;0.40;;;9.30;99.90;;;;;;5013266;28;20557;-71
2022/10/11 01:01:58;;;;;;;0.40;0.40;;;9.30;99.90;;;;;;5013041;28;20491;-72
2022/10/11 01:04:46;;;;;;;0.40;0.40;;;9.20;99.90;;;;;;5012812;28;20449;-72
2022/10/11 01:07:34;;;;;;;0.40;0.40;;;9.20;99.90;;;;;;5012292;28;20422;-72
2022/10/11 01:10:22;;;;;;;0.40;0.40;;;9.20;99.90;;;;;;5012142;28;20580;-72
2022/10/11 01:13:23;;;;;;;0.40;0.40;;;9.10;99.90;;;;;;5013497;28;20521;-72
2022/10/11 01:16:15;;;;;;;0.40;0.40;;;9.00;99.90;;;;;;5012593;28;20432;-72
2022/10/11 01:19:17;;;;;;;0.40;0.40;;;9.00;99.90;;;;;;5020215;28;20484;-72
2022/10/11 01:22:19;;;;;;;0.40;0.40;;;8.60;99.90;;;;;;5013196;28;20437;-72
2022/10/11 01:25:17;;;;;;;0.40;0.40;;;8.80;99.90;;;;;;5012932;28;20536;-72
2022/10/11 01:28:22;;;;;;;0.40;0.40;;;8.70;99.90;;;;;;5012906;28;20509;-72
2022/10/11 01:31:20;;;;;;;0.40;0.40;;;8.70;99.90;;;;;;5012957;28;20553;-72
2022/10/11 01:34:14;;;;;;;1.63;1.33;;;8.60;99.90;;;;;;5012085;28;20537;-72
2022/10/11 01:37:05;;;;;;;0.40;0.40;;;8.70;99.90;;;;;;5013083;28;20418;-72
2022/10/11 01:40:00;;;;;;;0.50;0.50;;;8.60;99.90;;;;;;5012851;28;20461;-72
2022/10/11 01:42:49;;;;;;;0.40;0.40;;;8.60;99.90;;;;;;5013315;28;20439;-72
2022/10/11 01:45:38;;;;;;;0.40;0.40;;;8.50;99.90;;;;;;5012673;28;20921;-72
2022/10/11 01:48:27;;;;;;;0.40;0.40;;;8.50;99.90;;;;;;5013013;28;20425;-72
2022/10/11 01:51:16;;;;;;;0.50;0.50;;;8.40;99.90;;;;;;5012578;28;20422;-72
2022/10/11 01:54:33;;;;;;;0.40;0.40;;;8.50;99.90;;;;;;5011862;28;20447;-72
2022/10/11 01:57:54;;;;;;;0.40;0.40;;;8.40;99.90;;;;;;5009808;28;20422;-72
2022/10/11 02:00:51;;;;;;;0.40;0.40;;;8.40;99.90;;;;;;5012147;28;20772;-72
2022/10/11 02:03:46;;;;;;;0.40;0.40;;;8.30;99.90;;;;;;5011869;28;20576;-72
2022/10/11 02:06:39;;;;;;;0.40;0.40;;;8.30;99.90;;;;;;5012762;28;20436;-73
2022/10/11 02:09:35;;;;;;;0.40;0.40;;;8.20;99.90;;;;;;5012364;28;20437;-72
2022/10/11 02:12:32;;;;;;;0.40;0.40;;;8.20;99.90;;;;;;5011523;28;20437;-71
2022/10/11 02:15:22;;;;;;;0.40;0.40;;;8.20;99.90;;;;;;5013000;28;20458;-72
2022/10/11 02:18:14;;;;;;;0.40;0.40;;;8.20;99.90;;;;;;5016820;28;20960;-72
2022/10/11 02:21:07;;;;;;;0.40;0.40;;;8.10;99.90;;;;;;5016474;28;20552;-72
2022/10/11 02:24:01;;;;;;;0.40;0.40;;;8.10;99.90;;;;;;5015652;28;20966;-72
2022/10/11 02:26:53;;;;;;;0.40;0.40;;;8.10;99.90;;;;;;5016392;28;20438;-72
2022/10/11 02:29:44;;;;;;;0.40;0.40;;;8.10;99.90;;;;;;5016256;28;20430;-72
2022/10/11 02:32:33;;;;;;;0.40;0.40;;;8.10;99.90;;;;;;5016367;28;20517;-72
2022/10/11 02:35:26;;;;;;;0.40;0.40;;;8.10;99.90;;;;;;5016260;28;20536;-72
2022/10/11 02:38:21;;;;;;;0.40;0.40;;;8.00;99.90;;;;;;5014629;28;20893;-72
2022/10/11 02:41:16;;;;;;;0.40;0.40;;;8.00;99.90;;;;;;5015274;28;20970;-72
2022/10/11 02:44:08;;;;;;;0.40;0.40;;;7.90;99.90;;;;;;5016834;28;20446;-71
2022/10/11 02:46:57;;;;;;;0.40;0.40;;;7.90;99.90;;;;;;5016152;28;20434;-72
2022/10/11 02:49:45;;;;;;;0.40;0.40;;;7.90;99.90;;;;;;5016198;28;20954;-72
2022/10/11 02:52:33;;;;;;;0.40;0.40;;;7.90;99.90;;;;;;5016473;28;20522;-72
2022/10/11 02:55:23;;;;;;;0.40;0.40;;;7.90;99.90;;;;;;5016645;28;20445;-72
2022/10/11 02:58:11;;;;;;;0.40;0.40;;;7.90;99.90;;;;;;5015708;28;20517;-72
2022/10/11 03:00:59;;;;;;;0.40;0.40;;;7.80;99.90;;;;;;5015308;28;20534;-71
2022/10/11 03:03:47;;;;;;;0.50;0.50;;;7.80;99.90;;;;;;5015647;28;20870;-72
2022/10/11 03:06:35;;;;;;;0.40;0.40;;;7.80;99.90;;;;;;5016035;28;20425;-72
2022/10/11 03:09:23;;;;;;;0.40;0.40;;;7.80;99.90;;;;;;5015393;28;20426;-72
2022/10/11 03:12:12;;;;;;;0.40;0.40;;;7.70;99.90;;;;;;5015622;28;20780;-72
2022/10/11 03:15:00;;;;;;;0.40;0.40;;;7.80;99.90;;;;;;5015902;28;20457;-72
2022/10/11 03:17:49;;;;;;;0.40;0.40;;;7.60;99.90;;;;;;5016167;28;20954;-72
2022/10/11 03:20:37;;;;;;;0.40;0.40;;;7.70;99.90;;;;;;5016144;28;20473;-72
2022/10/11 03:23:25;;;;;;;0.50;0.50;;;7.70;99.90;;;;;;5016791;28;20426;-72
2022/10/11 03:26:13;;;;;;;0.40;0.40;;;7.80;99.90;;;;;;5016709;28;20517;-72
2022/10/11 03:29:02;;;;;;;0.40;0.40;;;7.70;99.90;;;;;;5015783;28;20517;-72
2022/10/11 03:31:50;;;;;;;0.40;0.40;;;7.70;99.90;;;;;;5025048;28;20497;-72
2022/10/11 03:34:38;;;;;;;0.40;0.40;;;7.80;99.90;;;;;;5025481;28;20442;-72
2022/10/11 03:37:26;;;;;;;0.40;0.40;;;7.80;99.90;;;;;;5027807;28;20501;-72
2022/10/11 03:40:15;;;;;;;0.40;0.40;;;7.70;99.90;;;;;;5019110;28;20426;-72
2022/10/11 03:43:03;;;;;;;0.40;0.40;;;7.70;99.90;;;;;;5015709;28;20422;-72
2022/10/11 03:45:52;;;;;;;0.40;0.40;;;7.70;99.90;;;;;;5015939;28;20440;-72
2022/10/11 03:48:40;;;;;;;0.40;0.40;;;7.70;99.90;;;;;;5014912;28;20549;-72
2022/10/11 03:51:28;;;;;;;0.40;0.40;;;7.70;99.90;;;;;;5014673;28;20422;-72
2022/10/11 03:54:16;;;;;;;0.40;0.40;;;7.70;99.90;;;;;;5015280;28;20831;-72
2022/10/11 03:57:04;;;;;;;0.40;0.40;;;7.60;99.90;;;;;;5014855;28;20449;-72
2022/10/11 03:59:52;;;;;;;0.40;0.40;;;7.60;99.90;;;;;;5015220;28;20427;-72
2022/10/11 04:02:42;;;;;;;0.40;0.40;;;7.60;99.90;;;;;;5015135;28;20946;-72
2022/10/11 04:05:30;;;;;;;0.40;0.40;;;7.50;99.90;;;;;;5015293;28;20460;-72
2022/10/11 04:08:18;;;;;;;0.40;0.40;;;7.50;99.90;;;;;;5015450;28;20800;-71
2022/10/11 04:11:06;;;;;;;0.40;0.40;;;7.40;99.90;;;;;;5013856;28;20417;-72
2022/10/11 04:13:55;;;;;;;0.70;0.70;;;7.60;99.90;;;;;;5015001;28;20450;-72
2022/10/11 04:16:43;;;;;;;0.40;0.40;;;7.60;99.90;;;;;;5013845;28;20424;-72
2022/10/11 04:19:34;;;;;;;0.40;0.40;;;7.70;99.90;;;;;;5013546;28;20430;-72
2022/10/11 04:22:22;;;;;;;0.40;0.40;;;7.70;99.90;;;;;;5013437;28;20462;-72
2022/10/11 04:25:10;;;;;;;0.40;0.40;;;7.60;99.90;;;;;;5013657;28;20599;-72
2022/10/11 04:27:58;;;;;;;0.40;0.40;;;7.60;99.90;;;;;;5014975;28;20512;-72
2022/10/11 04:30:46;;;;;;;0.40;0.40;;;7.50;99.90;;;;;;5013351;28;20965;-72
2022/10/11 04:33:35;;;;;;;0.40;0.40;;;7.60;99.90;;;;;;5015330;28;20621;-72
2022/10/11 04:36:24;;;;;;;0.40;0.40;;;7.70;99.90;;;;;;5014886;28;20426;-72
2022/10/11 04:39:12;;;;;;;0.40;0.40;;;7.60;99.90;;;;;;5013481;28;20584;-72
2022/10/11 04:42:00;;;;;;;0.40;0.40;;;7.60;99.90;;;;;;5014508;28;20564;-72
2022/10/11 04:44:48;;;;;;;1.13;0.67;;;7.60;99.90;;;;;;5015225;28;20529;-72
2022/10/11 04:47:36;;;;;;;0.40;0.40;;;7.60;99.90;;;;;;5014255;28;21014;-71
2022/10/11 04:50:25;;;;;;;0.40;0.40;;;7.60;99.90;;;;;;5014418;28;20457;-72
2022/10/11 04:53:14;;;;;;;0.40;0.40;;;7.60;99.90;;;;;;5014520;28;20425;-72
2022/10/11 04:56:04;;;;;;;0.40;0.40;;;7.60;99.90;;;;;;5014188;28;20990;-72
2022/10/11 04:58:53;;;;;;;0.40;0.40;;;7.60;99.90;;;;;;5014050;28;20457;-71
2022/10/11 05:01:41;;;;;;;0.40;0.40;;;7.50;99.90;;;;;;5014544;28;20509;-72
2022/10/11 05:04:30;;;;;;;0.63;0.63;;;7.50;99.90;;;;;;5014322;28;20490;-72
2022/10/11 05:07:18;;;;;;;0.40;0.40;;;7.50;99.90;;;;;;5014976;28;20434;-72
2022/10/11 05:10:09;;;;;;;0.40;0.40;;;7.50;99.90;;;;;;5013801;28;20498;-72
2022/10/11 05:12:57;;;;;;;0.40;0.40;;;7.40;99.90;;;;;;5015276;28;20564;-71
2022/10/11 05:15:45;;;;;;;0.40;0.40;;;7.40;99.90;;;;;;5013945;28;20513;-71
2022/10/11 05:18:33;;;;;;;0.40;0.40;;;7.40;99.90;;;;;;5013953;28;20433;-70
2022/10/11 05:21:23;;;;;;;0.50;0.50;;;7.30;99.90;;;;;;5012027;28;20465;-71
2022/10/11 05:24:11;;;;;;;0.40;0.40;;;7.40;99.90;;;;;;5013905;28;21065;-71
2022/10/11 05:27:01;;;;;;;0.40;0.40;;;7.40;99.90;;;;;;5014293;28;20913;-71
2022/10/11 05:29:50;;;;;;;0.40;0.40;;;7.40;99.90;;;;;;5014276;28;20517;-72
2022/10/11 05:32:38;;;;;;;0.40;0.40;;;7.40;99.90;;;;;;5015263;28;20454;-70
2022/10/11 05:35:26;;;;;;;0.40;0.40;;;7.40;99.90;;;;;;5014154;28;20448;-71
2022/10/11 05:38:14;;;;;;;0.40;0.40;;;7.40;99.90;;;;;;5014470;28;20513;-71
2022/10/11 05:41:03;;;;;;;0.40;0.40;;;7.30;99.90;;;;;;5022054;28;20520;-71
2022/10/11 05:43:53;;;;;;;0.40;0.40;;;7.30;99.90;;;;;;5024571;28;20540;-71
2022/10/11 05:46:41;;;;;;;1.07;1.00;;;7.40;99.90;;;;;;5024151;28;20437;-71
2022/10/11 05:49:29;;;;;;;0.50;0.50;;;7.40;99.90;;;;;;5014000;28;20802;-71
2022/10/11 05:52:20;;;;;;;1.27;0.80;;;7.40;99.90;;;;;;5016979;28;20472;-72
2022/10/11 05:55:09;;;;;;;1.27;1.27;;;7.50;99.90;;;;;;5017573;28;20442;-71
2022/10/11 05:57:57;;;;;;;0.40;0.40;;;7.50;99.90;;;;;;5031260;28;20443;-71
2022/10/11 06:00:46;;;;;;;0.40;0.40;;;7.50;99.90;;;;;;5034772;28;20435;-71
2022/10/11 06:03:35;;;;;;;0.40;0.40;;;7.50;99.90;;;;;;5028062;28;21193;-71
2022/10/11 06:06:24;;;;;;;0.40;0.40;;;7.50;99.90;;;;;;5037792;28;20816;-71
2022/10/11 06:09:13;;;;;;;0.40;0.40;;;7.50;99.90;;;;;;5022819;28;20434;-71
2022/10/11 06:12:02;;;;;;;0.40;0.40;;;7.50;99.90;;;;;;5017790;28;20434;-72
2022/10/11 06:14:50;;;;;;;0.40;0.40;;;7.60;99.90;;;;;;5018761;28;20458;-71
2022/10/11 06:17:39;;;;;;;0.40;0.40;;;7.60;99.90;;;;;;5018602;28;20528;-71
2022/10/11 06:20:28;;;;;;;0.40;0.40;;;8.70;99.90;;;;;;5034164;28;20523;-71
2022/10/11 06:23:16;;;;;;;0.40;0.40;;;7.70;99.90;;;;;;5028187;28;20825;-71
2022/10/11 06:26:06;;;;;;;0.40;0.40;;;7.80;99.90;;;;;;4410062;22;18864535;-69
2022/10/11 06:28:55;;;;;;;0.67;0.67;;;7.70;99.90;;;;;;5056759;28;20235;-69
2022/10/11 06:31:44;;;;;;;0.70;0.70;;;7.80;99.90;;;;;;5058497;28;20434;-69
2022/10/11 06:34:33;;;;;;;0.40;0.40;;;7.90;99.90;;;;;;5060165;28;21045;-69
2022/10/11 06:37:21;;;;;;;0.53;0.53;;;7.90;99.90;;;;;;5060749;28;20470;-69
2022/10/11 06:40:10;;;;;;;0.40;0.40;;;7.90;99.90;;;;;;5059392;28;20428;-69
2022/10/11 06:42:59;;;;;;;0.40;0.40;;;8.00;99.90;;;;;;5063072;28;20534;-70
2022/10/11 06:45:47;;;;;;;0.40;0.40;;;8.00;99.90;;;;;;5065105;28;20451;-70
2022/10/11 06:48:35;;;;;;;0.47;0.47;;;8.00;99.90;;;;;;5067323;28;20459;-69
2022/10/11 06:51:26;;;;;;;0.40;0.40;;;8.10;99.90;;;;;;5063516;28;20438;-69
2022/10/11 06:54:14;;;;;;;0.40;0.40;;;8.10;99.90;;;;;;5063220;28;20467;-70
2022/10/11 06:57:02;;;;;;;0.90;0.90;;;8.20;99.90;;;;;;5065293;28;20444;-70
2022/10/11 06:59:50;;;;;;;0.40;0.40;;;8.20;99.90;;;;;;5064710;28;20804;-69
2022/10/11 07:02:38;;;;;;;0.40;0.40;;;8.30;99.90;;;;;;5061259;28;20495;-70
2022/10/11 07:05:28;;;;;;;0.40;0.40;;;8.30;99.90;;;;;;5054736;28;20444;-69
2022/10/11 07:08:17;;;;;;;1.57;1.00;;;8.40;99.90;;;;;;5044449;28;20527;-68
2022/10/11 07:11:07;;;;;;;0.50;0.50;;;8.40;99.90;;;;;;5051962;28;20452;-69
2022/10/11 07:13:57;;;;;;;0.40;0.40;;;8.50;99.90;;;;;;5053910;28;20818;-69
2022/10/11 07:16:45;;;;;;;0.40;0.40;;;8.60;99.90;;;;;;5055990;28;20428;-69
2022/10/11 07:19:33;;;;;;;0.40;0.40;;;8.60;99.90;;;;;;5055626;28;20473;-69
2022/10/11 07:22:21;;;;;;;1.03;0.60;;;8.60;99.90;;;;;;5037735;28;20556;-68
2022/10/11 07:25:11;;;;;;;1.80;0.80;;;8.70;99.90;;;;;;5050679;28;20452;-68
2022/10/11 07:27:59;;;;;;;1.13;1.13;;;8.70;99.90;;;;;;5038729;28;20579;-69
2022/10/11 07:30:47;;;;;;;0.70;0.70;;;8.80;99.90;;;;;;5034967;28;20429;-68
2022/10/11 07:33:35;;;;;;;0.53;0.53;;;8.90;99.90;;;;;;5035389;28;20909;-69
2022/10/11 07:36:23;;;;;;;0.40;0.40;;;9.00;99.90;;;;;;5035373;28;20518;-68
2022/10/11 07:39:12;;;;;;;1.03;0.60;;;9.00;99.90;;;;;;5034524;28;20508;-69
2022/10/11 07:42:01;;;;;;;0.47;0.47;;;9.10;99.90;;;;;;5033575;28;20511;-68
2022/10/11 07:44:49;;;;;;;1.23;0.50;;;9.20;99.90;;;;;;5032752;28;20545;-68
2022/10/11 07:47:37;;;;;;;0.50;0.50;;;9.20;99.90;;;;;;5035131;28;20548;-68
2022/10/11 07:50:26;;;;;;;9.60;1.43;;;9.30;99.90;;;;;;5042558;28;20562;-69
2022/10/11 07:53:16;;;;;;;0.40;0.40;;;9.30;99.90;;;;;;5038887;28;20990;-69
2022/10/11 07:56:05;;;;;;;0.40;0.40;;;9.40;99.90;;;;;;5053845;28;20448;-68
2022/10/11 07:58:57;;;;;;;0.50;0.50;;;9.40;99.90;;;;;;5052730;28;20439;-69
2022/10/11 08:01:45;;;;;;;1.67;0.90;;;9.50;99.90;;;;;;5053916;28;20981;-70
2022/10/11 08:04:33;;;;;;;0.40;0.40;;;9.60;99.90;;;;;;5061856;28;20456;-71
2022/10/11 08:07:21;;;;;;;0.40;0.40;;;9.70;99.90;;;;;;5072282;28;20519;-69
2022/10/11 08:10:10;;;;;;;0.40;0.40;;;9.70;99.90;;;;;;5042971;28;20456;-67
2022/10/11 08:12:58;;;;;;;0.60;0.60;;;9.80;99.90;;;;;;5034651;28;20429;-68
2022/10/11 08:15:53;;;;;;;0.63;0.63;;;9.90;99.90;;;;;;5034086;28;20460;-68
2022/10/11 08:18:41;;;;;;;0.80;0.80;;;10.00;99.90;;;;;;5034488;28;20425;-68
2022/10/11 08:21:30;;;;;;;0.40;0.40;;;10.10;99.90;;;;;;5051976;28;20431;-69
2022/10/11 08:24:19;;;;;;;0.40;0.40;;;10.10;99.90;;;;;;5052678;28;20472;-69
2022/10/11 08:27:08;;;;;;;0.40;0.40;;;10.20;99.90;;;;;;5052877;28;20820;-68
2022/10/11 08:29:56;;;;;;;0.60;0.60;;;10.30;99.90;;;;;;5052515;28;20439;-68
2022/10/11 08:32:46;;;;;;;0.40;0.40;;;11.10;99.90;;;;;;5042544;28;20524;-69
2022/10/11 08:35:34;;;;;;;0.50;0.50;;;10.60;99.90;;;;;;5032365;28;20445;-69
2022/10/11 08:38:22;;;;;;;0.40;0.40;;;10.70;99.90;;;;;;5042042;28;20429;-70
2022/10/11 08:41:31;;;;;;;0.40;0.40;;;10.80;99.90;;;;;;5032417;28;20820;-68
2022/10/11 08:44:36;;;;;;;0.40;0.40;;;10.90;99.90;;;;;;5035419;28;20472;-69
2022/10/11 08:47:47;;;;;;;0.40;0.40;;;11.00;99.90;;;;;;5050922;28;20420;-70
2022/10/11 08:50:35;;;;;;;0.40;0.40;;;11.10;99.90;;;;;;5050967;28;20897;-68
2022/10/11 08:53:29;;;;;;;0.40;0.40;;;11.10;99.90;;;;;;5051239;28;20431;-69
2022/10/11 08:56:19;;;;;;;0.43;0.43;;;11.20;99.90;;;;;;5051114;28;20563;-69
2022/10/11 08:59:30;;;;;;;0.60;0.50;;;11.30;99.90;;;;;;5051380;28;20978;-68
2022/10/11 09:02:32;;;;;;;28.10;15.70;;;11.40;99.90;;;;;;5050761;28;20427;-69
2022/10/11 09:05:51;;;;;;;0.57;0.50;;;11.50;99.90;;;;;;5039349;28;20457;-67
2022/10/11 09:09:04;;;;;;;0.40;0.40;;;11.50;99.90;;;;;;5031588;28;20921;-69
2022/10/11 09:12:07;;;;;;;0.40;0.40;;;11.60;99.90;;;;;;5032186;28;20425;-68
2022/10/11 09:15:08;;;;;;;0.40;0.40;;;11.70;99.90;;;;;;5032265;28;20531;-69
2022/10/11 09:18:13;;;;;;;0.40;0.40;;;11.70;99.90;;;;;;5031998;28;20425;-68
2022/10/11 09:21:16;;;;;;;0.40;0.40;;;11.70;99.90;;;;;;5048527;28;20799;-69
2022/10/11 09:24:26;;;;;;;0.40;0.40;;;11.80;99.90;;;;;;5042697;28;20475;-69
2022/10/11 09:27:19;;;;;;;0.40;0.40;;;11.80;99.90;;;;;;5032531;28;20518;-69
2022/10/11 09:30:28;;;;;;;0.40;0.40;;;11.90;99.90;;;;;;5053112;28;20443;-70
2022/10/11 09:33:24;;;;;;;0.40;0.40;;;11.90;99.90;;;;;;5050409;28;20872;-70
2022/10/11 09:36:20;;;;;;;0.40;0.40;;;12.00;99.90;;;;;;5052451;28;20464;-69
2022/10/11 09:39:24;;;;;;;0.40;0.40;;;12.00;99.90;;;;;;5051579;28;20456;-70
2022/10/11 09:42:12;;;;;;;0.40;0.40;;;12.10;99.90;;;;;;5030560;28;20432;-69
2022/10/11 09:45:01;;;;;;;3.33;3.13;;;12.20;99.90;;;;;;5039564;28;20476;-69
2022/10/11 09:47:52;;;;;;;0.40;0.40;;;12.30;99.90;;;;;;5045503;28;20477;-69
2022/10/11 09:50:40;;;;;;;0.40;0.40;;;12.40;99.90;;;;;;5049337;28;20822;-70
2022/10/11 09:53:53;;;;;;;0.40;0.40;;;12.40;99.90;;;;;;5049361;28;20895;-70
2022/10/11 09:56:43;;;;;;;0.50;0.50;;;12.50;99.90;;;;;;5050781;28;21027;-69
2022/10/11 09:59:33;;;;;;;0.50;0.50;;;12.60;99.90;;;;;;5049719;28;20432;-70
2022/10/11 10:02:23;;;;;;;0.40;0.40;;;12.50;99.90;;;;;;5031131;28;20425;-70
2022/10/11 10:05:19;;;;;;;0.40;0.40;;;12.60;99.90;;;;;;5030639;28;20970;-70
2022/10/11 10:08:25;;;;;;;0.40;0.40;;;12.70;99.90;;;;;;5030326;28;20435;-70
2022/10/11 10:11:15;;;;;;;0.40;0.40;;;12.80;99.90;;;;;;5039255;28;20420;-67
2022/10/11 10:14:03;;;;;;;0.40;0.40;;;12.90;99.90;;;;;;5043126;28;20420;-69
2022/10/11 10:17:03;;;;;;;0.40;0.40;;;12.90;99.90;;;;;;5042544;28;20470;-69
2022/10/11 10:19:53;;;;;;;0.40;0.40;;;13.00;99.90;;;;;;5040773;28;20437;-68
2022/10/11 10:22:46;;;;;;;0.40;0.40;;;13.10;99.90;;;;;;5045595;28;21029;-69
2022/10/11 10:25:37;;;;;;;0.40;0.40;;;13.10;99.90;;;;;;5051141;28;21124;-68
2022/10/11 10:28:31;;;;;;;0.40;0.40;;;13.20;99.90;;;;;;5067841;28;20589;-71
2022/10/11 10:31:22;;;;;;;0.40;0.40;;;13.20;99.90;;;;;;5069889;28;20435;-70
2022/10/11 10:34:15;;;;;;;4.97;1.13;;;13.40;99.90;;;;;;5070099;28;20502;-71
2022/10/11 10:37:08;;;;;;;0.40;0.40;;;13.40;99.90;;;;;;5070897;28;20793;-67
2022/10/11 10:40:02;;;;;;;1.17;0.80;;;13.50;99.90;;;;;;5041545;28;20941;-68
2022/10/11 10:42:50;;;;;;;0.40;0.40;;;13.60;99.90;;;;;;5033643;28;21494;-68
2022/10/11 10:45:55;;;;;;;0.40;0.40;;;13.80;99.90;;;;;;5033717;28;20553;-68
2022/10/11 10:48:49;;;;;;;0.40;0.40;;;14.00;99.90;;;;;;5034061;28;20527;-66
2022/10/11 10:52:26;;;;;;;1.17;0.47;;;14.10;99.90;;;;;;5032728;28;20436;-67
2022/10/11 10:55:23;;;;;;;0.40;0.40;;;14.20;99.90;;;;;;5031355;28;20546;-66
2022/10/11 10:58:25;;;;;;;0.40;0.40;;;14.40;99.90;;;;;;5034419;28;20441;-66
2022/10/11 11:01:19;;;;;;;0.40;0.40;;;14.60;99.90;;;;;;5044084;28;20569;-67
2022/10/11 11:04:18;;;;;;;0.50;0.50;;;15.00;99.90;;;;;;5033381;28;20460;-67
2022/10/11 11:07:17;;;;;;;0.40;0.40;;;15.00;99.90;;;;;;5052854;28;20585;-66
2022/10/11 11:10:12;;;;;;;0.60;0.60;;;15.00;99.90;;;;;;5053961;28;20575;-67
2022/10/11 11:13:14;;;;;;;2.57;0.50;;;15.20;99.90;;;;;;5052913;28;20424;-66
2022/10/11 11:16:12;;;;;;;0.40;0.40;;;15.20;99.90;;;;;;5054919;28;20467;-66
2022/10/11 11:19:12;;;;;;;2.10;0.50;;;15.20;99.90;;;;;;5054246;28;20542;-67
2022/10/11 11:22:08;;;;;;;0.40;0.40;;;14.90;99.90;;;;;;5051857;28;20547;-66
2022/10/11 11:25:04;;;;;;;0.40;0.40;;;14.80;99.90;;;;;;5051821;28;20559;-65
2022/10/11 11:28:05;;;;;;;4.23;0.60;;;14.70;99.90;;;;;;5054461;28;20424;-66
2022/10/11 11:30:58;;;;;;;3.93;1.10;;;14.60;99.90;;;;;;5051965;28;20519;-66
2022/10/11 11:33:55;;;;;;;0.60;0.60;;;14.60;99.90;;;;;;5040574;28;20445;-66
2022/10/11 11:36:46;;;;;;;0.40;0.40;;;14.60;99.90;;;;;;5054650;28;20570;-66
2022/10/11 11:39:37;;;;;;;0.50;0.50;;;14.60;99.90;;;;;;5053117;28;20430;-66
2022/10/11 11:42:33;;;;;;;0.40;0.40;;;14.70;99.90;;;;;;5054747;28;20860;-66
2022/10/11 11:45:26;;;;;;;0.40;0.40;;;14.80;99.90;;;;;;5064468;28;20539;-67
2022/10/11 11:48:19;;;;;;;0.50;0.50;;;14.90;99.90;;;;;;5065101;28;20292;-66
2022/10/11 11:51:13;;;;;;;1.43;0.87;;;15.10;99.90;;;;;;5054287;28;20553;-66
2022/10/11 11:54:12;;;;;;;0.40;0.40;;;15.10;99.90;;;;;;5050742;28;20290;-66
2022/10/11 11:57:07;;;;;;;3.23;1.07;;;15.20;99.90;;;;;;5046789;28;20424;-67
2022/10/11 12:00:03;;;;;;;0.40;0.40;;;15.30;99.90;;;;;;5040193;28;20281;-67
2022/10/11 12:02:55;;;;;;;0.40;0.40;;;15.50;99.90;;;;;;5038728;28;20209;-67
2022/10/11 12:06:17;;;;;;;1.33;0.40;;;15.50;99.90;;;;;;5045866;28;20562;-67
2022/10/11 12:09:20;;;;;;;0.40;0.40;;;15.60;99.90;;;;;;5038960;28;20515;-67
2022/10/11 12:12:24;;;;;;;0.40;0.40;;;15.40;99.90;;;;;;5032273;28;20202;-67
2022/10/11 12:15:20;;;;;;;0.40;0.40;;;15.40;99.90;;;;;;5042775;28;20443;-67
2022/10/11 12:18:15;;;;;;;0.40;0.40;;;15.50;99.90;;;;;;5041957;28;20260;-66
2022/10/11 12:21:06;;;;;;;0.63;0.40;;;15.60;99.90;;;;;;5041411;28;20283;-67
2022/10/11 12:23:56;;;;;;;0.40;0.40;;;15.70;99.90;;;;;;5053261;28;20209;-67
2022/10/11 12:26:47;;;;;;;0.40;0.40;;;15.70;99.90;;;;;;5042612;28;20233;-67
2022/10/11 12:29:49;;;;;;;0.73;0.63;;;15.70;99.90;;;;;;5044651;28;20288;-67
2022/10/11 12:32:52;;;;;;;0.40;0.40;;;15.90;99.90;;;;;;5039147;28;20208;-67
2022/10/11 12:35:59;;;;;;;1.53;0.93;;;15.90;99.90;;;;;;5044934;28;20542;-68
2022/10/11 12:39:24;;;;;;;0.50;0.50;;;16.00;99.90;;;;;;5051610;28;20288;-67
2022/10/11 12:42:31;;;;;;;0.40;0.40;;;15.90;99.90;;;;;;5046260;28;20286;-67
2022/10/11 12:45:34;;;;;;;0.40;0.40;;;15.80;99.90;;;;;;5034740;28;20452;-67
2022/10/11 12:48:48;;;;;;;0.40;0.40;;;15.60;99.90;;;;;;5043888;28;20205;-67
2022/10/11 12:51:41;;;;;;;0.40;0.40;;;15.30;99.90;;;;;;5051304;28;20577;-67
2022/10/11 12:54:51;;;;;;;0.40;0.40;;;15.10;99.90;;;;;;5048276;28;20771;-68
2022/10/11 12:58:03;;;;;;;0.40;0.40;;;15.00;99.90;;;;;;5040348;28;20528;-67
2022/10/11 13:01:16;;;;;;;0.40;0.40;;;14.90;99.90;;;;;;5030911;28;20234;-67
2022/10/11 13:04:07;;;;;;;0.77;0.60;;;14.90;99.90;;;;;;5032088;28;20444;-67
2022/10/11 13:06:58;;;;;;;0.40;0.40;;;14.90;99.90;;;;;;5050681;28;20295;-71
2022/10/11 13:09:54;;;;;;;0.40;0.40;;;14.90;99.90;;;;;;5051959;28;20213;-67
2022/10/11 13:12:47;;;;;;;1.13;0.50;;;14.90;99.90;;;;;;5043283;28;20202;-66
2022/10/11 13:15:35;;;;;;;0.40;0.40;;;14.80;99.90;;;;;;5050989;28;20226;-67
2022/10/11 13:18:25;;;;;;;0.50;0.50;;;14.80;99.90;;;;;;5037694;28;20566;-67
2022/10/11 13:21:18;;;;;;;0.40;0.40;;;14.80;99.90;;;;;;5054842;28;20213;-66
2022/10/11 13:24:14;;;;;;;0.70;0.50;;;14.80;99.90;;;;;;5059878;28;20519;-68
2022/10/11 13:27:03;;;;;;;0.40;0.40;;;14.80;99.90;;;;;;5056295;28;20976;-67
2022/10/11 13:29:55;;;;;;;0.50;0.50;;;14.60;99.90;;;;;;5059265;28;20582;-67
2022/10/11 13:32:43;;;;;;;0.70;0.60;;;14.70;99.90;;;;;;5058053;28;20526;-67
2022/10/11 13:35:34;;;;;;;0.80;0.50;;;14.70;99.90;;;;;;5055653;28;20502;-67
2022/10/11 13:38:25;;;;;;;0.40;0.40;;;14.70;99.90;;;;;;5058264;28;20505;-66
2022/10/11 13:41:13;;;;;;;0.90;0.53;;;14.80;99.90;;;;;;5057404;28;20246;-66
2022/10/11 13:44:03;;;;;;;0.40;0.40;;;15.10;99.90;;;;;;5059768;28;20261;-66
2022/10/11 13:46:53;;;;;;;0.67;0.67;;;15.30;99.90;;;;;;5057719;28;20255;-67
2022/10/11 13:49:46;;;;;;;0.40;0.40;;;15.30;99.90;;;;;;5067552;28;20454;-67
2022/10/11 13:52:34;;;;;;;0.37;0.37;;;15.50;99.90;;;;;;5058306;28;20443;-67
2022/10/11 13:55:32;;;;;;;0.40;0.40;;;15.40;99.90;;;;;;5047131;28;20661;-66
2022/10/11 13:58:26;;;;;;;0.40;0.40;;;15.40;99.90;;;;;;5037869;28;21074;-66
2022/10/11 14:01:19;;;;;;;0.40;0.30;;;15.40;99.90;;;;;;5040715;28;20463;-68
2022/10/11 14:04:11;;;;;;;1.07;1.07;;;15.20;99.90;;;;;;5040601;28;20258;-67
2022/10/11 14:07:01;;;;;;;0.40;0.40;;;15.30;99.90;;;;;;5041219;28;20225;-67
2022/10/11 14:09:50;;;;;;;0.40;0.40;;;15.20;99.90;;;;;;5029340;28;20202;-67
2022/10/11 14:12:43;;;;;;;0.40;0.40;;;15.20;99.90;;;;;;5031845;28;20267;-66
2022/10/11 14:15:33;;;;;;;0.40;0.40;;;15.10;99.90;;;;;;5034160;28;20304;-66
2022/10/11 14:18:36;;;;;;;0.40;0.40;;;15.10;99.90;;;;;;5045066;28;20809;-66
2022/10/11 14:21:35;;;;;;;0.40;0.40;;;15.20;99.90;;;;;;5054785;28;20467;-68
2022/10/11 14:24:23;;;;;;;0.40;0.40;;;15.40;99.90;;;;;;5046290;28;20219;-67
2022/10/11 14:27:17;;;;;;;0.40;0.40;;;15.40;99.90;;;;;;5036420;28;20222;-67
2022/10/11 14:30:08;;;;;;;0.40;0.40;;;15.20;99.90;;;;;;5035067;28;20206;-67
2022/10/11 14:33:14;;;;;;;0.40;0.40;;;15.10;99.90;;;;;;5036260;28;20424;-67
2022/10/11 14:36:02;;;;;;;0.40;0.40;;;15.10;99.90;;;;;;5035653;28;20536;-67
2022/10/11 14:38:52;;;;;;;0.73;0.73;;;15.20;99.90;;;;;;5034436;28;20209;-68
2022/10/11 14:41:40;;;;;;;0.40;0.40;;;16.20;99.90;;;;;;5036591;28;20220;-68
2022/10/11 14:44:28;;;;;;;0.40;0.40;;;17.20;99.90;;;;;;5035062;28;20713;-68
2022/10/11 14:47:17;;;;;;;0.50;0.50;;;17.80;99.90;;;;;;5034834;28;20314;-69
2022/10/11 14:50:22;;;;;;;0.50;0.50;;;18.00;99.90;;;;;;5035044;28;20356;-68
2022/10/11 14:53:11;;;;;;;0.40;0.40;;;17.70;99.90;;;;;;5034488;28;20208;-68
2022/10/11 14:56:01;;;;;;;0.40;0.40;;;17.50;99.90;;;;;;5036390;28;20222;-67
2022/10/11 14:58:49;;;;;;;0.35;0.35;;;17.00;99.90;;;;;;5035937;28;20198;-68
2022/10/11 15:01:37;;;;;;;0.40;0.40;;;16.70;99.90;;;;;;5036635;28;20299;-68
2022/10/11 15:04:27;;;;;;;0.40;0.40;;;16.30;99.90;;;;;;5035231;28;20241;-67
2022/10/11 15:07:15;;;;;;;0.40;0.40;;;16.00;99.90;;;;;;5049477;28;20271;-68